Time;durP1;ratioP1;P1;durP2;ratioP2;P2;SDS_P1;SDS_P2;PMS_P1;PMS_P2;Temp;Humidity;BMP_temperature;BMP_pressure;BME280_temperature;BME280_humidity;BME280_pressure;Samples;Min_cycle;Max_cycle;Signal;HPM_P1;HPM_P2
2023/01/06 00:00:09;;;;;;;12.70;7.13;;;;;;;9.23;100.00;101705.59;5020467;28;20025;-56
2023/01/06 00:02:34;;;;;;;15.90;6.82;;;;;;;9.24;100.00;101709.09;5026709;28;20431;-54
2023/01/06 00:04:59;;;;;;;14.02;7.05;;;;;;;9.21;100.00;101702.25;5026305;28;20030;-56
2023/01/06 00:07:24;;;;;;;13.15;6.60;;;;;;;9.23;100.00;101700.28;5029564;28;20041;-55
2023/01/06 00:09:50;;;;;;;13.00;6.95;;;;;;;9.22;100.00;101701.25;5026830;28;20434;-57
2023/01/06 00:12:15;;;;;;;13.40;6.40;;;;;;;9.22;100.00;101695.97;5021928;28;20038;-55
2023/01/06 00:14:41;;;;;;;14.13;6.70;;;;;;;9.21;100.00;101691.66;5021514;28;20049;-55
2023/01/06 00:17:07;;;;;;;13.27;6.45;;;;;;;9.23;100.00;101689.69;5029675;28;20068;-57
2023/01/06 00:19:33;;;;;;;11.38;6.05;;;;;;;9.24;100.00;101685.25;5025812;28;20044;-56
2023/01/06 00:21:58;;;;;;;10.85;5.80;;;;;;;9.23;100.00;101684.41;5029907;28;20489;-54
2023/01/06 00:24:23;;;;;;;10.65;5.25;;;;;;;9.24;100.00;101686.09;5028315;28;20040;-56
2023/01/06 00:26:48;;;;;;;10.52;4.88;;;;;;;9.29;100.00;101686.53;5029621;28;20037;-55
2023/01/06 00:29:13;;;;;;;11.13;4.70;;;;;;;9.31;100.00;101691.69;5027013;28;20033;-55
2023/01/06 00:31:39;;;;;;;9.57;4.70;;;;;;;9.31;100.00;101685.59;5028849;28;20061;-56
2023/01/06 00:34:04;;;;;;;10.98;4.40;;;;;;;9.29;100.00;101683.06;5027089;28;20405;-56
2023/01/06 00:36:29;;;;;;;8.95;4.47;;;;;;;9.31;100.00;101680.28;5019813;28;20681;-56
2023/01/06 00:38:55;;;;;;;9.90;4.20;;;;;;;9.33;100.00;101679.16;5024016;28;20061;-56
2023/01/06 00:42:02;;;;;;;9.65;4.63;;;;;;;9.26;100.00;101676.22;5027984;28;20045;-56
2023/01/06 00:44:09;;;;;;;11.07;4.18;;;;;;;9.26;100.00;101673.56;5019804;28;20168;-56
2023/01/06 00:46:34;;;;;;;7.15;4.10;;;;;;;9.32;100.00;101680.13;5023383;28;20108;-55
2023/01/06 00:49:01;;;;;;;9.00;4.60;;;;;;;9.31;100.00;101681.09;5028665;28;20381;-54
2023/01/06 00:51:26;;;;;;;9.68;4.40;;;;;;;9.32;100.00;101677.47;5020047;28;20052;-55
2023/01/06 00:53:52;;;;;;;9.05;4.10;;;;;;;9.32;100.00;101671.38;5024456;28;20560;-57
2023/01/06 00:56:17;;;;;;;10.43;4.50;;;;;;;9.31;100.00;101677.63;5030406;28;20160;-56
2023/01/06 00:58:42;;;;;;;10.70;4.70;;;;;;;9.28;100.00;101676.91;5026320;28;20041;-56
2023/01/06 01:01:08;;;;;;;7.35;4.28;;;;;;;9.24;100.00;101669.38;5029828;28;20037;-54
2023/01/06 01:03:35;;;;;;;11.77;4.10;;;;;;;9.27;100.00;101680.53;5027274;28;20034;-54
2023/01/06 01:06:02;;;;;;;10.55;3.92;;;;;;;9.27;100.00;101675.25;5025453;28;20041;-55
2023/01/06 01:08:28;;;;;;;10.70;4.20;;;;;;;9.27;100.00;101664.66;5030486;28;20040;-56
2023/01/06 01:10:54;;;;;;;11.82;4.55;;;;;;;9.26;100.00;101665.63;5031936;28;20033;-54
2023/01/06 01:13:19;;;;;;;10.93;4.70;;;;;;;9.23;100.00;101673.81;5031570;28;20038;-54
2023/01/06 01:15:45;;;;;;;10.02;4.50;;;;;;;9.24;100.00;101664.09;5030842;28;20037;-55
2023/01/06 01:18:10;;;;;;;9.25;4.55;;;;;;;9.24;100.00;101664.91;5030771;28;20037;-56
2023/01/06 01:20:35;;;;;;;10.48;4.88;;;;;;;9.23;100.00;101668.53;5025070;28;20090;-56
2023/01/06 01:23:01;;;;;;;9.45;4.32;;;;;;;9.25;100.00;101661.31;5023522;28;20029;-56
2023/01/06 01:25:26;;;;;;;8.00;4.25;;;;;;;9.24;100.00;101669.38;5021815;28;20033;-56
2023/01/06 01:27:51;;;;;;;10.05;4.13;;;;;;;9.23;100.00;101663.25;5027006;28;20683;-53
2023/01/06 01:30:19;;;;;;;5.25;3.67;;;;;;;9.23;100.00;101670.34;5022266;28;20036;-56
2023/01/06 01:32:45;;;;;;;9.18;3.70;;;;;;;9.22;100.00;101661.56;5022554;28;20044;-54
2023/01/06 01:35:10;;;;;;;9.32;3.80;;;;;;;9.23;100.00;101657.94;5019179;28;20041;-55
2023/01/06 01:37:35;;;;;;;9.98;3.78;;;;;;;9.22;100.00;101648.34;5022138;28;20029;-53
2023/01/06 01:40:01;;;;;;;12.90;3.83;;;;;;;9.22;100.00;101648.34;5020840;28;20116;-56
2023/01/06 01:42:26;;;;;;;9.75;3.90;;;;;;;9.24;100.00;101649.03;5029327;28;20087;-56
2023/01/06 01:44:56;;;;;;;9.00;3.40;;;;;;;9.24;100.00;101643.72;5029488;28;20771;-55
2023/01/06 01:47:43;;;;;;;7.93;3.13;;;;;;;9.24;100.00;101638.44;5027063;28;20022;-56
2023/01/06 01:50:14;;;;;;;9.65;3.10;;;;;;;9.22;100.00;101629.81;5023426;28;21627;-55
2023/01/06 01:52:43;;;;;;;10.60;3.08;;;;;;;9.21;100.00;101633.44;5030914;28;20029;-54
2023/01/06 01:55:09;;;;;;;7.10;2.97;;;;;;;9.22;100.00;101621.88;5018875;28;20622;-56
2023/01/06 01:57:46;;;;;;;8.43;2.97;;;;;;;9.22;100.00;101621.03;5027091;28;20128;-56
2023/01/06 02:00:12;;;;;;;8.43;2.80;;;;;;;9.22;100.00;101618.41;5025639;28;20393;-57
2023/01/06 02:02:37;;;;;;;5.57;2.67;;;;;;;9.25;100.00;101624.25;5029782;28;20037;-56
2023/01/06 02:05:05;;;;;;;4.78;2.60;;;;;;;9.24;100.00;101627.03;5031989;28;20066;-59
2023/01/06 02:07:30;;;;;;;9.07;2.70;;;;;;;9.24;100.00;101624.38;5028555;28;20031;-55
2023/01/06 02:10:08;;;;;;;6.45;2.60;;;;;;;9.23;100.00;101617.44;5027657;28;20022;-56
2023/01/06 02:12:34;;;;;;;6.07;2.67;;;;;;;9.24;100.00;101617.28;5027020;28;20120;-53
2023/01/06 02:14:59;;;;;;;7.18;2.70;;;;;;;9.25;100.00;101618.13;5031383;28;20576;-57
2023/01/06 02:17:46;;;;;;;7.63;2.50;;;;;;;9.25;100.00;101629.56;5024522;28;20036;-56
2023/01/06 02:20:27;;;;;;;6.57;2.50;;;;;;;9.28;100.00;101617.88;5022266;28;20038;-55
2023/01/06 02:23:17;;;;;;;7.32;2.50;;;;;;;9.27;100.00;101618.81;5028917;28;20025;-56
2023/01/06 02:26:09;;;;;;;7.28;2.40;;;;;;;9.34;100.00;101613.84;5028492;28;20034;-57
2023/01/06 02:28:55;;;;;;;6.65;2.20;;;;;;;9.36;100.00;101610.09;5025279;28;20148;-55
2023/01/06 02:31:51;;;;;;;5.68;2.15;;;;;;;9.34;100.00;101596.16;5023211;28;20096;-56
2023/01/06 02:34:26;;;;;;;5.47;1.90;;;;;;;9.39;100.00;101591.28;5024135;28;20079;-58
2023/01/06 02:37:05;;;;;;;7.45;2.40;;;;;;;9.36;100.00;101593.34;5029149;28;20025;-54
2023/01/06 02:39:36;;;;;;;6.50;2.00;;;;;;;9.34;100.00;101590.00;5021297;28;20476;-55
2023/01/06 02:42:28;;;;;;;5.15;2.13;;;;;;;9.32;100.00;101576.09;5025288;28;20057;-56
2023/01/06 02:44:59;;;;;;;3.42;2.00;;;;;;;9.34;100.00;101579.44;5025126;28;20366;-56
2023/01/06 02:47:38;;;;;;;6.53;2.20;;;;;;;9.33;100.00;101572.47;5029260;28;20037;-56
2023/01/06 02:50:39;;;;;;;5.60;2.00;;;;;;;9.35;100.00;101567.84;5020783;28;20277;-55
2023/01/06 02:53:30;;;;;;;3.65;2.10;;;;;;;9.36;100.00;101566.88;5017826;28;20436;-58
2023/01/06 02:55:57;;;;;;;4.90;2.00;;;;;;;9.36;99.32;101556.28;5028506;28;20017;-54
2023/01/06 02:58:51;;;;;;;4.72;1.90;;;;;;;9.36;100.00;101561.59;5024364;28;20389;-59
2023/01/06 03:01:30;;;;;;;6.38;2.03;;;;;;;9.37;99.12;101569.41;5024755;28;20384;-57
2023/01/06 03:04:01;;;;;;;5.25;1.95;;;;;;;9.29;98.63;101554.19;5024636;28;20030;-56
2023/01/06 03:06:30;;;;;;;3.50;2.10;;;;;;;9.36;99.06;101561.59;5021020;28;20425;-59
2023/01/06 03:08:57;;;;;;;5.85;2.30;;;;;;;9.35;99.68;101558.13;5013797;28;20041;-57
2023/01/06 03:11:29;;;;;;;6.70;2.30;;;;;;;9.36;99.00;101561.59;5015293;28;20045;-55
2023/01/06 03:14:11;;;;;;;5.50;2.00;;;;;;;9.39;98.34;101550.75;5021041;28;20044;-56
2023/01/06 03:16:36;;;;;;;2.85;1.88;;;;;;;9.37;98.97;101544.75;5023955;28;20029;-57
2023/01/06 03:19:02;;;;;;;7.00;2.00;;;;;;;9.37;99.27;101552.69;5026878;28;20093;-55
2023/01/06 03:21:33;;;;;;;5.25;2.17;;;;;;;9.41;98.26;101546.13;5027474;28;20063;-55
2023/01/06 03:23:58;;;;;;;4.97;1.90;;;;;;;9.38;98.11;101543.78;5027548;28;20037;-54
2023/01/06 03:26:25;;;;;;;4.05;2.10;;;;;;;9.37;98.78;101536.81;5028420;28;20068;-56
2023/01/06 03:28:50;;;;;;;5.18;2.20;;;;;;;9.37;98.30;101539.47;5026172;28;20125;-55
2023/01/06 03:31:38;;;;;;;5.18;2.25;;;;;;;9.38;97.86;101543.78;5026488;28;20475;-57
2023/01/06 03:34:33;;;;;;;4.07;2.00;;;;;;;9.42;98.42;101550.44;5022101;28;20696;-55
2023/01/06 03:37:21;;;;;;;6.43;2.22;;;;;;;9.43;96.79;101552.16;5024656;28;20068;-56
2023/01/06 03:39:57;;;;;;;6.75;2.22;;;;;;;9.40;97.82;101536.53;5024848;28;20080;-58
2023/01/06 03:45:49;;;;;;;4.93;1.90;;;;;;;9.41;98.09;101528.47;5024030;28;20567;-54
2023/01/06 03:48:21;;;;;;;6.78;2.20;;;;;;;9.37;98.23;101536.81;5022780;28;20048;-56
2023/01/06 03:51:04;;;;;;;7.68;2.28;;;;;;;9.38;97.75;101539.31;5025150;28;20056;-56
2023/01/06 03:53:44;;;;;;;6.55;2.38;;;;;;;9.39;98.38;101537.50;5019205;28;20030;-56
2023/01/06 03:56:18;;;;;;;6.30;2.22;;;;;;;9.40;98.44;101532.09;5023591;28;20029;-56
2023/01/06 03:58:47;;;;;;;4.97;2.10;;;;;;;9.38;98.01;101533.19;5027254;28;20447;-55
2023/01/06 04:01:14;;;;;;;6.30;2.10;;;;;;;9.40;98.46;101528.59;5017791;28;20142;-55
2023/01/06 04:03:43;;;;;;;4.43;2.10;;;;;;;9.38;98.53;101517.31;5022709;28;20025;-56
2023/01/06 04:06:09;;;;;;;7.55;2.15;;;;;;;9.40;97.89;101515.34;5023105;28;20029;-52
2023/01/06 04:08:34;;;;;;;3.45;1.90;;;;;;;9.42;98.52;101527.47;5024943;28;20075;-55
2023/01/06 04:10:59;;;;;;;4.30;2.17;;;;;;;9.44;98.16;101514.13;5024945;28;20486;-57
2023/01/06 04:13:25;;;;;;;4.30;2.08;;;;;;;9.47;98.06;101490.00;5022901;28;20549;-54
2023/01/06 04:15:50;;;;;;;4.53;2.00;;;;;;;9.46;97.42;101503.38;5016683;28;20033;-56
2023/01/06 04:18:15;;;;;;;4.45;2.05;;;;;;;9.49;97.11;101501.31;5018335;28;20457;-55
2023/01/06 04:20:41;;;;;;;4.93;2.20;;;;;;;9.50;97.87;101494.19;5018436;28;20026;-54
2023/01/06 04:23:06;;;;;;;8.05;2.20;;;;;;;9.47;97.78;101490.00;5027637;28;20068;-57
2023/01/06 04:25:31;;;;;;;4.22;1.92;;;;;;;9.48;97.52;101491.66;5025707;28;20075;-59
2023/01/06 04:27:56;;;;;;;6.10;2.13;;;;;;;9.47;98.19;101487.34;5022758;28;20029;-57
2023/01/06 04:30:22;;;;;;;4.68;2.00;;;;;;;9.48;97.45;101490.84;5027155;28;20063;-55
2023/01/06 04:32:48;;;;;;;3.97;2.08;;;;;;;9.46;97.91;101480.38;5027577;28;20115;-54
2023/01/06 04:35:13;;;;;;;5.68;1.83;;;;;;;9.50;97.31;101479.16;5027585;28;20091;-55
2023/01/06 04:37:38;;;;;;;3.65;2.00;;;;;;;9.49;97.33;101472.19;5024228;28;20077;-55
2023/01/06 04:40:06;;;;;;;3.95;1.80;;;;;;;9.48;97.88;101470.47;5031804;28;20033;-54
2023/01/06 04:43:02;;;;;;;4.03;1.90;;;;;;;9.49;96.87;101460.75;5024733;28;20083;-57
2023/01/06 04:45:17;;;;;;;4.25;2.10;;;;;;;9.50;97.56;101457.97;5029292;28;20077;-55
2023/01/06 04:47:42;;;;;;;1.88;1.60;;;;;;;9.66;95.27;101452.09;5030872;28;20123;-54
2023/01/06 04:50:07;;;;;;;5.40;1.90;;;;;;;9.51;96.84;101442.91;5033289;28;20129;-56
2023/01/06 04:52:33;;;;;;;5.20;1.92;;;;;;;9.47;97.39;101444.16;5027315;28;20523;-55
2023/01/06 04:54:58;;;;;;;3.47;1.77;;;;;;;9.53;96.44;101447.09;5025385;28;20033;-56
2023/01/06 04:57:23;;;;;;;5.25;1.83;;;;;;;9.51;96.80;101454.34;5021399;28;20417;-56
2023/01/06 04:59:48;;;;;;;2.80;1.70;;;;;;;9.55;95.88;101450.44;5031623;28;20076;-56
2023/01/06 05:02:17;;;;;;;4.88;1.60;;;;;;;9.54;96.03;101455.88;5025287;28;20394;-55
2023/01/06 05:04:42;;;;;;;5.05;1.70;;;;;;;9.51;96.76;101454.34;5028108;28;20496;-56
2023/01/06 05:07:08;;;;;;;2.80;1.60;;;;;;;9.51;97.17;101454.34;5026695;28;20036;-56
2023/01/06 05:09:33;;;;;;;4.10;1.60;;;;;;;9.53;96.52;101446.25;5031535;28;20095;-54
2023/01/06 05:11:58;;;;;;;8.80;1.90;;;;;;;9.51;96.92;101438.44;5024380;28;20117;-57
2023/01/06 05:14:24;;;;;;;2.47;1.50;;;;;;;9.52;96.32;101434.00;5022318;28;20424;-56
2023/01/06 05:16:49;;;;;;;3.97;1.70;;;;;;;9.52;95.85;101440.13;5023032;28;20026;-56
2023/01/06 05:19:14;;;;;;;4.55;1.70;;;;;;;9.54;96.42;101437.34;5032713;28;20049;-56
2023/01/06 05:21:39;;;;;;;4.30;1.60;;;;;;;9.49;96.94;101428.97;5029200;28;20056;-56
2023/01/06 05:24:05;;;;;;;3.00;1.73;;;;;;;9.52;96.74;101445.41;5029189;28;20032;-57
2023/01/06 05:26:30;;;;;;;3.88;1.80;;;;;;;9.48;96.71;101449.31;5031483;28;20056;-54
2023/01/06 05:28:55;;;;;;;3.92;1.75;;;;;;;9.48;96.66;101444.00;5031963;28;20029;-55
2023/01/06 05:31:21;;;;;;;5.43;1.88;;;;;;;9.55;96.31;101441.66;5028778;28;20470;-55
2023/01/06 05:33:47;;;;;;;4.05;1.80;;;;;;;9.46;96.68;101440.69;5029473;28;20421;-57
2023/01/06 05:36:15;;;;;;;3.47;1.80;;;;;;;9.46;97.29;101448.63;5032433;28;20116;-56
2023/01/06 05:38:41;;;;;;;3.67;1.80;;;;;;;9.47;96.72;101452.13;5027731;28;20029;-56
2023/01/06 05:41:06;;;;;;;4.63;1.80;;;;;;;9.52;95.74;101442.75;5024213;28;20103;-57
2023/01/06 05:43:34;;;;;;;5.10;1.83;;;;;;;9.51;96.33;101456.97;5025848;28;20033;-54
2023/01/06 05:46:03;;;;;;;3.95;1.70;;;;;;;9.46;97.41;101453.91;5028832;28;20040;-55
2023/01/06 05:48:29;;;;;;;2.45;1.63;;;;;;;9.49;96.99;101447.50;5027675;28;20025;-54
2023/01/06 05:51:05;;;;;;;4.50;1.98;;;;;;;9.55;97.18;101454.88;5031693;28;20472;-56
2023/01/06 05:53:34;;;;;;;2.20;1.80;;;;;;;9.50;96.13;101463.25;5029986;28;20489;-56
2023/01/06 05:56:01;;;;;;;4.68;1.65;;;;;;;9.59;95.29;101456.28;5023145;28;20386;-56
2023/01/06 05:58:26;;;;;;;2.17;1.48;;;;;;;9.54;96.30;101454.03;5022727;28;20033;-57
2023/01/06 06:00:52;;;;;;;4.35;1.88;;;;;;;9.58;96.05;101446.69;5028564;28;20502;-57
2023/01/06 06:03:17;;;;;;;2.53;1.65;;;;;;;9.56;96.13;101451.25;5022451;28;20037;-56
2023/01/06 06:05:42;;;;;;;2.33;1.60;;;;;;;9.53;96.83;101456.84;5021200;28;20033;-55
2023/01/06 06:08:07;;;;;;;4.07;1.88;;;;;;;9.62;95.75;101452.53;5029472;28;20040;-57
2023/01/06 06:10:33;;;;;;;4.43;1.90;;;;;;;9.57;95.67;101442.34;5023552;28;20018;-56
2023/01/06 06:12:58;;;;;;;3.13;1.80;;;;;;;9.53;97.11;101451.56;5020719;28;20029;-56
2023/01/06 06:15:23;;;;;;;3.15;1.70;;;;;;;9.53;97.04;101447.09;5027317;28;20736;-58
2023/01/06 06:17:48;;;;;;;3.28;1.90;;;;;;;9.59;96.59;101452.78;5021866;28;20099;-54
2023/01/06 06:20:14;;;;;;;2.55;1.73;;;;;;;9.63;96.05;101451.56;5023899;28;20124;-54
2023/01/06 06:22:39;;;;;;;3.72;2.00;;;;;;;9.53;96.43;101447.09;5020437;28;20030;-56
2023/01/06 06:25:05;;;;;;;3.13;1.80;;;;;;;9.55;97.32;101460.19;5018722;28;20478;-54
2023/01/06 06:27:30;;;;;;;2.70;1.80;;;;;;;9.56;96.39;101451.25;5020745;28;20038;-55
2023/01/06 06:29:56;;;;;;;4.72;1.70;;;;;;;9.58;96.51;101453.78;5021737;28;20030;-59
2023/01/06 06:32:21;;;;;;;3.67;1.90;;;;;;;9.64;95.89;101453.22;5022342;28;20029;-56
2023/01/06 06:34:46;;;;;;;2.25;1.75;;;;;;;9.61;96.76;101450.84;5015395;28;20375;-54
2023/01/06 06:37:12;;;;;;;2.17;1.80;;;;;;;9.54;97.46;101448.75;5023750;28;20806;-53
2023/01/06 06:39:39;;;;;;;2.55;1.80;;;;;;;9.55;97.15;101455.75;5023668;28;20033;-59
2023/01/06 06:42:04;;;;;;;4.13;1.90;;;;;;;9.57;97.91;101441.53;5025481;28;20515;-56
2023/01/06 06:44:29;;;;;;;2.78;2.00;;;;;;;9.59;97.51;101450.16;5023580;28;20049;-56
2023/01/06 06:46:56;;;;;;;3.70;1.90;;;;;;;9.59;97.93;101452.78;5020781;28;20033;-56
2023/01/06 06:49:22;;;;;;;3.60;2.10;;;;;;;9.53;98.29;101452.38;5020749;28;20029;-56
2023/01/06 06:51:47;;;;;;;4.90;2.00;;;;;;;9.51;98.47;101449.03;5020874;28;20100;-56
2023/01/06 06:54:13;;;;;;;4.40;1.90;;;;;;;9.55;99.30;101461.03;5021822;28;20109;-57
2023/01/06 06:56:38;;;;;;;5.38;2.30;;;;;;;9.49;99.58;101456.28;5021646;28;20037;-56
2023/01/06 06:59:03;;;;;;;3.70;2.30;;;;;;;9.48;100.00;101462.53;5018865;28;20030;-55
2023/01/06 07:01:30;;;;;;;4.53;2.20;;;;;;;9.42;100.00;101449.84;5020827;28;20040;-56
2023/01/06 07:03:55;;;;;;;4.55;2.30;;;;;;;9.39;100.00;101463.38;5022255;28;20084;-56
2023/01/06 07:06:23;;;;;;;4.85;2.30;;;;;;;9.41;100.00;101474.66;5022183;28;20053;-54
2023/01/06 07:08:48;;;;;;;6.82;2.30;;;;;;;9.41;100.00;101470.22;5016958;28;20052;-56
2023/01/06 07:11:14;;;;;;;5.53;2.30;;;;;;;9.38;100.00;101474.97;5016573;28;20025;-56
2023/01/06 07:13:40;;;;;;;3.20;2.15;;;;;;;9.36;100.00;101482.19;5024892;28;20053;-59
2023/01/06 07:16:06;;;;;;;4.25;2.20;;;;;;;9.40;100.00;101478.28;5022538;28;20091;-54
2023/01/06 07:18:31;;;;;;;3.60;2.30;;;;;;;9.35;100.00;101483.16;5024020;28;20040;-56
2023/01/06 07:20:57;;;;;;;2.83;2.35;;;;;;;9.25;100.00;101469.91;5018475;28;20026;-59
2023/01/06 07:23:23;;;;;;;3.88;2.40;;;;;;;9.17;100.00;101462.66;5024154;28;20033;-55
2023/01/06 07:25:52;;;;;;;5.32;2.70;;;;;;;9.33;100.00;101474.53;5016861;28;20038;-55
2023/01/06 07:28:18;;;;;;;4.65;2.40;;;;;;;9.18;100.00;101471.44;5019981;28;20497;-57
2023/01/06 07:30:43;;;;;;;4.80;2.67;;;;;;;9.16;100.00;101466.28;5022803;28;20083;-55
2023/01/06 07:33:08;;;;;;;4.03;2.63;;;;;;;9.29;100.00;101469.50;5022874;28;20029;-58
2023/01/06 07:35:34;;;;;;;5.07;2.50;;;;;;;9.15;100.00;101462.81;5021178;28;20048;-56
2023/01/06 07:38:03;;;;;;;4.53;2.60;;;;;;;9.17;100.00;101456.53;5018163;28;20123;-56
2023/01/06 07:40:29;;;;;;;4.20;2.50;;;;;;;9.17;100.00;101467.94;5019188;28;20618;-55
2023/01/06 07:42:54;;;;;;;3.50;2.75;;;;;;;9.13;100.00;101471.84;5015106;28;20037;-57
2023/01/06 07:45:19;;;;;;;2.90;2.60;;;;;;;9.13;100.00;101482.44;5014435;28;20064;-56
2023/01/06 07:47:44;;;;;;;3.63;2.63;;;;;;;9.16;100.00;101487.44;5017201;28;20035;-58
2023/01/06 07:50:10;;;;;;;5.18;2.80;;;;;;;9.12;100.00;101488.69;5019613;28;20536;-56
2023/01/06 07:52:35;;;;;;;5.60;2.67;;;;;;;9.10;100.00;101488.00;5023504;28;20041;-55
2023/01/06 07:55:00;;;;;;;4.97;2.40;;;;;;;9.18;100.00;101501.38;5024445;28;20069;-56
2023/01/06 07:57:27;;;;;;;3.13;2.50;;;;;;;9.16;100.00;101498.03;5030331;28;20029;-56
2023/01/06 07:59:52;;;;;;;3.70;2.50;;;;;;;9.17;100.00;101499.69;5028353;28;20048;-58
2023/01/06 08:02:18;;;;;;;4.35;2.72;;;;;;;9.22;100.00;101508.06;5024848;28;20034;-55
2023/01/06 08:04:43;;;;;;;3.65;2.70;;;;;;;9.28;100.00;101512.00;5025195;28;20037;-56
2023/01/06 08:07:08;;;;;;;3.35;2.70;;;;;;;9.38;100.00;101509.38;5018486;28;20060;-60
2023/01/06 08:09:34;;;;;;;4.22;2.50;;;;;;;9.34;100.00;101510.59;5019400;28;20064;-57
2023/01/06 08:11:59;;;;;;;6.20;2.67;;;;;;;9.39;100.00;101514.50;5027043;28;20029;-58
2023/01/06 08:14:25;;;;;;;4.50;2.40;;;;;;;9.37;100.00;101513.81;5025150;28;20035;-59
2023/01/06 08:16:50;;;;;;;3.03;2.30;;;;;;;9.37;100.00;101520.94;5031292;28;20069;-58
2023/01/06 08:19:15;;;;;;;3.20;2.90;;;;;;;9.38;100.00;101527.91;5031487;28;20051;-60
2023/01/06 08:21:41;;;;;;;3.20;2.90;;;;;;;9.51;100.00;101531.13;5028476;28;20026;-59
2023/01/06 08:24:06;;;;;;;3.65;2.90;;;;;;;9.46;100.00;101533.34;5026712;28;20072;-58
2023/01/06 08:26:32;;;;;;;3.20;2.90;;;;;;;9.58;100.00;101543.81;5031085;28;20055;-59
2023/01/06 08:28:57;;;;;;;3.20;2.90;;;;;;;9.46;100.00;101535.13;5025193;28;20970;-58
2023/01/06 08:31:22;;;;;;;3.95;2.90;;;;;;;9.47;100.00;101548.25;5023925;28;20040;-58
2023/01/06 08:33:49;;;;;;;3.78;3.10;;;;;;;9.45;100.00;101538.75;5024476;28;20030;-60
2023/01/06 08:36:16;;;;;;;4.13;2.90;;;;;;;9.48;100.00;101538.50;5025505;28;20060;-59
2023/01/06 08:38:42;;;;;;;3.97;2.80;;;;;;;9.62;100.00;101550.50;5026806;28;20030;-59
2023/01/06 08:41:08;;;;;;;5.28;3.10;;;;;;;9.54;100.00;101554.66;5028967;28;20034;-58
2023/01/06 08:43:34;;;;;;;3.30;3.08;;;;;;;9.50;100.00;101563.88;5021217;28;20088;-59
2023/01/06 08:46:01;;;;;;;4.63;3.25;;;;;;;9.51;100.00;101570.84;5029483;28;20497;-59
2023/01/06 08:48:28;;;;;;;3.63;3.30;;;;;;;9.55;100.00;101572.25;5029609;28;20034;-58
2023/01/06 08:50:53;;;;;;;3.90;3.60;;;;;;;9.57;100.00;101573.91;5028158;28;20033;-58
2023/01/06 08:53:19;;;;;;;4.72;3.30;;;;;;;9.59;100.00;101571.94;5030890;28;20610;-58
2023/01/06 08:55:44;;;;;;;4.72;3.60;;;;;;;9.53;100.00;101574.16;5024031;28;20081;-59
2023/01/06 08:58:10;;;;;;;6.70;4.00;;;;;;;9.54;100.00;101581.13;5020991;28;20412;-56
2023/01/06 09:00:38;;;;;;;6.20;3.85;;;;;;;9.61;100.00;101583.22;5024627;28;20111;-57
2023/01/06 09:03:03;;;;;;;4.80;4.30;;;;;;;9.59;100.00;101587.84;5025287;28;20083;-54
2023/01/06 09:05:29;;;;;;;4.40;4.00;;;;;;;9.67;100.00;101585.38;5025096;28;20030;-53
2023/01/06 09:07:54;;;;;;;5.65;4.50;;;;;;;9.71;100.00;101592.03;5029298;28;20045;-58
2023/01/06 09:10:20;;;;;;;4.25;3.90;;;;;;;9.67;100.00;101598.59;5021536;28;20120;-56
2023/01/06 09:12:46;;;;;;;5.07;4.57;;;;;;;9.64;100.00;101591.78;5032504;28;20037;-55
2023/01/06 09:15:12;;;;;;;6.60;4.90;;;;;;;9.73;100.00;101600.72;5030994;28;20022;-56
2023/01/06 09:17:37;;;;;;;5.50;4.97;;;;;;;9.69;100.00;101599.28;5025820;28;20028;-55
2023/01/06 09:20:03;;;;;;;6.78;5.20;;;;;;;9.68;100.00;101608.22;5027961;28;20100;-57
2023/01/06 09:22:29;;;;;;;6.97;5.53;;;;;;;9.75;100.00;101606.69;5027441;28;20434;-59
2023/01/06 09:24:54;;;;;;;7.00;5.55;;;;;;;9.67;100.00;101606.56;5023854;28;20034;-55
2023/01/06 09:27:20;;;;;;;7.35;5.47;;;;;;;9.71;100.00;101621.16;5029958;28;20026;-54
2023/01/06 09:29:45;;;;;;;6.70;5.70;;;;;;;9.65;100.00;101613.78;5031081;28;20477;-56
2023/01/06 09:32:10;;;;;;;9.35;5.57;;;;;;;9.78;100.00;101624.94;5022996;28;20034;-55
2023/01/06 09:34:36;;;;;;;8.27;5.22;;;;;;;9.70;100.00;101622.16;5029448;28;20520;-54
2023/01/06 09:37:01;;;;;;;6.22;5.15;;;;;;;9.73;100.00;101636.94;5018900;28;20033;-55
2023/01/06 09:39:26;;;;;;;5.65;4.88;;;;;;;9.80;100.00;101644.22;5021840;28;20029;-55
2023/01/06 09:42:08;;;;;;;7.90;5.28;;;;;;;9.92;100.00;101636.16;5016842;28;20562;-54
2023/01/06 09:44:51;;;;;;;6.25;5.03;;;;;;;9.79;100.00;101637.25;5018737;28;20053;-54
2023/01/06 09:47:22;;;;;;;6.78;5.10;;;;;;;9.76;100.00;101644.59;5015659;28;20033;-55
2023/01/06 09:49:56;;;;;;;9.57;5.40;;;;;;;9.77;100.00;101641.81;5023222;28;20488;-55
2023/01/06 09:52:33;;;;;;;7.20;5.03;;;;;;;9.91;100.00;101645.03;5024406;28;20372;-54
2023/01/06 09:55:04;;;;;;;7.38;5.43;;;;;;;10.04;100.00;101650.94;5019920;28;20660;-55
2023/01/06 09:57:38;;;;;;;8.10;5.00;;;;;;;9.95;100.00;101647.31;5029900;28;20543;-55
2023/01/06 10:00:13;;;;;;;8.55;5.70;;;;;;;10.02;100.00;101657.34;5021551;28;20041;-55
2023/01/06 10:02:40;;;;;;;10.60;5.90;;;;;;;10.02;100.00;101658.16;5031798;28;20435;-53
2023/01/06 10:05:33;;;;;;;7.13;6.13;;;;;;;9.98;100.00;101651.50;5030269;28;20037;-54
2023/01/06 10:07:58;;;;;;;8.15;5.90;;;;;;;9.98;100.00;101658.59;5024176;28;20042;-54
2023/01/06 10:11:03;;;;;;;6.55;5.78;;;;;;;10.07;100.00;101661.25;5027479;28;20501;-54
2023/01/06 10:13:29;;;;;;;9.13;6.47;;;;;;;9.96;100.00;101654.28;5030827;28;20034;-55
2023/01/06 10:16:25;;;;;;;9.27;5.97;;;;;;;9.93;100.00;101657.19;5023515;28;20497;-54
2023/01/06 10:19:02;;;;;;;8.80;5.55;;;;;;;9.96;100.00;101662.22;5024968;28;20038;-54
2023/01/06 10:21:31;;;;;;;8.38;5.65;;;;;;;9.96;100.00;101664.00;5020970;28;20392;-54
2023/01/06 10:23:58;;;;;;;8.88;5.10;;;;;;;9.97;100.00;101660.41;5024109;28;20030;-55
2023/01/06 10:26:41;;;;;;;8.95;5.07;;;;;;;10.00;99.81;101657.47;5030490;28;20068;-55
2023/01/06 10:29:31;;;;;;;8.43;5.00;;;;;;;10.07;99.65;101665.72;5028207;28;20028;-56
2023/01/06 10:31:58;;;;;;;11.13;5.20;;;;;;;9.91;99.37;101661.78;5027106;28;20029;-54
2023/01/06 10:34:26;;;;;;;7.85;4.95;;;;;;;9.86;99.64;101657.88;5025804;28;20384;-55
2023/01/06 10:37:09;;;;;;;7.53;4.70;;;;;;;9.97;97.90;101663.06;5029505;28;20037;-55
2023/01/06 10:39:38;;;;;;;9.68;4.72;;;;;;;9.89;97.30;101662.91;5030347;28;20033;-55
2023/01/06 10:45:00;;;;;;;9.40;4.78;;;;;;;9.99;96.44;101663.75;5020080;28;20056;-56
2023/01/06 10:47:29;;;;;;;6.50;5.20;;;;;;;9.99;98.00;101662.91;5028719;28;20056;-56
2023/01/06 10:49:55;;;;;;;9.43;5.70;;;;;;;10.01;96.95;101667.09;5029556;28;20100;-55
2023/01/06 10:52:23;;;;;;;8.63;6.18;;;;;;;10.06;97.48;101656.94;5026480;28;20047;-55
2023/01/06 10:54:54;;;;;;;9.02;6.60;;;;;;;10.07;98.02;101653.28;5025032;28;20095;-57
2023/01/06 10:57:28;;;;;;;10.45;6.82;;;;;;;10.06;98.60;101654.28;5020483;28;20038;-55
2023/01/06 11:00:13;;;;;;;10.77;6.78;;;;;;;10.14;98.50;101660.69;5020012;28;20033;-56
2023/01/06 11:02:50;;;;;;;11.38;8.23;;;;;;;10.08;97.65;101662.91;5019791;28;20030;-55
2023/01/06 11:05:19;;;;;;;11.77;7.90;;;;;;;9.96;97.56;101661.38;5018726;28;20063;-56
2023/01/06 11:07:51;;;;;;;11.85;7.78;;;;;;;9.96;96.98;101670.16;5020999;28;20037;-55
2023/01/06 11:10:25;;;;;;;11.27;7.82;;;;;;;9.95;97.04;101662.34;5021968;28;20527;-57
2023/01/06 11:12:51;;;;;;;13.35;8.80;;;;;;;9.94;97.79;101671.28;5018318;28;20497;-55
2023/01/06 11:15:23;;;;;;;13.45;8.90;;;;;;;9.88;97.90;101662.06;5018504;28;20036;-58
2023/01/06 11:17:48;;;;;;;13.10;8.98;;;;;;;9.98;95.98;101656.78;5019771;28;20381;-56
2023/01/06 11:20:17;;;;;;;12.48;8.85;;;;;;;10.03;94.77;101665.16;5020557;28;20033;-55
2023/01/06 11:22:43;;;;;;;16.25;9.70;;;;;;;9.94;94.94;101663.31;5020395;28;20026;-55
2023/01/06 11:25:20;;;;;;;13.23;9.23;;;;;;;9.99;95.40;101663.75;5019732;28;20037;-56
2023/01/06 11:27:47;;;;;;;12.90;9.18;;;;;;;9.92;95.12;101658.16;5018368;28;20060;-57
2023/01/06 11:30:25;;;;;;;14.20;8.82;;;;;;;9.98;93.85;101659.44;5018291;28;20044;-57
2023/01/06 11:32:51;;;;;;;14.40;9.23;;;;;;;9.93;93.24;101657.19;5020082;28;20037;-56
2023/01/06 11:35:20;;;;;;;10.40;6.60;;;;;;;10.06;88.03;101658.72;5019847;28;20026;-56
2023/01/06 11:37:45;;;;;;;12.20;6.88;;;;;;;9.98;89.69;101662.09;5017966;28;20132;-57
2023/01/06 11:40:26;;;;;;;11.20;5.63;;;;;;;10.09;87.63;101658.47;5018044;28;20682;-54